• Join FlightAware (Why Join?)
  • Login
  • US Flag 
04:59PM EDT


 

Airport Tracker/Info


-or-


 

Live Flight TrackerFlight Track Log ✈ DAL2230 ✈ 23-Apr-2012 ✈ KRSW - KATL

Flight Track Log - Related Links

Times and Time Zones

All times are in EDT time to prevent confusion due to time zone crossing. See the DAL2230 flight status page for this flight to view local times or setup timezone preferences in your user account.

Time Position Orientation Groundspeed Altitude Reporting Facility
EDT Latitude Longitude Course Direction KTS MPH feet Rate Location/Type
07:31AM 26.6603 -81.6889 355° North 238 274 5,900  Level Miami Center
07:32AM 26.7311 -81.6964 351° North 267 307 8,200 2,100 Climbing Miami Center
07:33AM 26.8039 -81.7089 351° North 267 307 10,200 1,740 Climbing Miami Center
07:34AM 26.8847 -81.7239 352° North 278 320 11,700 1,680 Climbing Miami Center
07:35AM 26.9781 -81.7394 347° North 306 352 13,600 2,040 Climbing Miami Center
07:36AM 27.0753 -81.7644 344° North 337 388 15,800 1,920 Climbing Miami Center
07:37AM 27.1744 -81.7967 345° North 358 412 17,500 1,740 Climbing Miami Center
07:38AM 27.2756 -81.8267 343° North 373 429 19,300 1,860 Climbing Miami Center
07:39AM 27.3933 -81.8669 341° North 391 450 21,300 1,800 Climbing Miami Center
07:40AM 27.5044 -81.9092 343° North 405 466 22,900 1,440 Climbing Miami Center
07:41AM 27.7147 -81.9831 349° North 432 497 25,600 1,440 Climbing Jacksonville Center
07:42AM 27.8381 -82.0103 357° North 442 509 27,100 1,320 Climbing Jacksonville Center
07:43AM 27.9675 -82.0183 329° Northwest 450 518 28,300 1,140 Climbing Jacksonville Center
07:44AM 28.0703 -82.0881 322° Northwest 427 491 29,400 1,200 Climbing Jacksonville Center
07:45AM 28.1667 -82.1744 330° Northwest 427 491 30,800 1,260 Climbing Jacksonville Center
07:46AM 28.2736 -82.2444 327° Northwest 432 497 32,000 1,080 Climbing Jacksonville Center
07:47AM 28.3761 -82.3192 329° Northwest 437 503 33,000 1,140 Climbing Jacksonville Center
07:48AM 28.4786 -82.3894 329° Northwest 437 503 34,300 1,020 Climbing Jacksonville Center
07:49AM 28.5811 -82.4600 328° Northwest 437 503 35,100 840 Climbing Jacksonville Center
07:50AM 28.6836 -82.5328 329° Northwest 437 503 36,000 420 Climbing Jacksonville Center
07:51AM 28.7819 -82.6011 329° Northwest 426 490 36,000  Level Jacksonville Center
07:52AM 28.8822 -82.6697 329° Northwest 426 490 36,000  Level Jacksonville Center
07:53AM 28.9825 -82.7383 328° Northwest 426 490 36,000  Level Jacksonville Center
07:54AM 29.0828 -82.8094 330° Northwest 426 490 36,000  Level Jacksonville Center
07:55AM 29.1850 -82.8783 328° Northwest 426 490 36,000  Level Jacksonville Center
07:56AM 29.2853 -82.9497 329° Northwest 426 490 36,000  Level Jacksonville Center
07:57AM 29.3875 -83.0189 328° Northwest 426 490 36,000  Level Jacksonville Center
07:58AM 29.4981 -83.0978 329° Northwest 431 496 36,000  Level Jacksonville Center
07:59AM 29.6003 -83.1697 327° Northwest 431 496 36,000  Level Jacksonville Center
08:00AM 29.6981 -83.2417 329° Northwest 430 495 36,000  Level Jacksonville Center
08:01AM 29.7897 -83.3042 329° Northwest 430 495 36,000  Level Jacksonville Center
08:02AM 29.8961 -83.3789 329° Northwest 424 488 36,000  Level Jacksonville Center
08:03AM 29.9958 -83.4489 330° Northwest 424 488 36,000  Level Jacksonville Center
08:04AM 30.0958 -83.5167 327° Northwest 419 482 36,000  Level Jacksonville Center
08:05AM 30.1936 -83.5894 328° Northwest 419 482 36,000  Level Jacksonville Center
08:06AM 30.2892 -83.6575 329° Northwest 414 476 36,000  Level Jacksonville Center
08:07AM 30.3892 -83.7258 327° Northwest 409 471 36,000  Level Jacksonville Center
08:08AM 30.4867 -83.7989 329° Northwest 409 471 36,000  Level Jacksonville Center
08:09AM 30.5739 -83.8600 329° Northwest 409 471 36,000  Level Jacksonville Center
08:10AM 30.6756 -83.9311 327° Northwest 409 471 36,000  Level Jacksonville Center
08:11AM 30.7711 -84.0047 329° Northwest 409 471 36,000  Level Jacksonville Center
08:12AM 30.8708 -84.0736 328° Northwest 409 471 36,000  Level Jacksonville Center
08:13AM 30.9703 -84.1453 326° Northwest 414 476 36,000  Level Jacksonville Center
08:14AM 31.0656 -84.2192 328° Northwest 414 476 36,000  Level Jacksonville Center
08:15AM 31.1650 -84.2911 328° Northwest 414 476 36,000 -120 Level Jacksonville Center
08:16AM 31.2644 -84.3631 328° Northwest 414 476 35,800 -660 Descending Jacksonville Center
08:19AM 31.4744 -84.5186 329° Northwest 408 470 34,000 -600 Descending Atlanta Center
08:20AM 31.5700 -84.5872 328° Northwest 408 470 34,000  Level Atlanta Center
08:21AM 31.6533 -84.6489 327° Northwest 408 470 34,000  Level Atlanta Center
08:22AM 31.7469 -84.7203 328° Northwest 403 464 34,000 -120 Level Atlanta Center
08:23AM 31.8403 -84.7894 339° North 403 464 33,800 -1,200 Descending Atlanta Center
08:24AM 31.9464 -84.8367 345° North 403 464 31,700 -2,160 Descending Atlanta Center
08:25AM 32.0589 -84.8722 344° North 408 470 29,600 -2,220 Descending Atlanta Center
08:26AM 32.1672 -84.9100 346° North 408 470 27,300 -2,220 Descending Atlanta Center
08:27AM 32.2858 -84.9456 344° North 396 456 25,200 -2,460 Descending Atlanta Center
08:28AM 32.3964 -84.9833 351° North 403 464 22,400 -2,100 Descending Atlanta Center
08:29AM 32.5067 -85.0044 358° North 408 470 21,000 -720 Descending Atlanta Center
08:30AM 32.6133 -85.0081 358° North 392 451 21,000  Level Atlanta Center
08:31AM 32.7217 -85.0117 356° North 387 445 21,000  Level Atlanta Center
08:32AM 32.8322 -85.0203 357° North 382 440 21,000 -660 Level Atlanta Center
08:33AM 32.9386 -85.0264 North 382 440 19,700 -1,680 Descending Atlanta Center
08:34AM 33.0389 -85.0250 357° North 376 433 17,700 -2,220 Descending Atlanta Center
08:35AM 33.1347 -85.0311 26° Northeast 360 414 15,300 -1,920 Descending Atlanta Center
08:36AM 33.2186 -84.9825 48° Northeast 324 373 13,900 -1,620 Descending Atlanta Center
08:37AM 33.2842 -84.8961 47° Northeast 331 381 12,100 -960 Descending Atlanta Center
08:38AM 33.3536 -84.8072 49° Northeast 347 399 12,000 -60 Descending Atlanta Center
08:39AM 33.4167 -84.7208 47° Northeast 354 407 12,000  Level Atlanta Center
08:40AM 33.4756 -84.6439 49° Northeast 327 376 12,000  Level Atlanta Center
08:41AM 33.5153 -84.5894 73° East 278 320 12,000 -840 Level Atlanta Center
08:42AM 33.5500 -84.4500 90° East 270 311 9,900 -1,320 Descending Atlanta TRACON
08:43AM 33.5500 -84.3667 90° East 259 298 8,600 -1,560 Descending Atlanta TRACON
08:44AM 33.5500 -84.2833 68° East 247 284 6,800 -1,800 Descending Atlanta TRACON
08:45AM 33.5667 -84.2333 320° Northwest 206 237 5,200 -1,680 Descending Atlanta TRACON
08:46AM 33.6000 -84.2667 301° West 155 178 3,700 -1,260 Descending Atlanta TRACON
08:47AM 33.6167 -84.3000 270° West 157 181 2,900 -900 Descending Atlanta TRACON
08:48AM 33.6167 -84.3667 270° West 142 163 2,000 -840 Descending Atlanta TRACON
08:49AM 33.6167 -84.4000 270° West 135 155 1,300 -780 Descending Atlanta TRACON